Time;durP1;ratioP1;P1;durP2;ratioP2;P2;SDS_P1;SDS_P2;PMS_P1;PMS_P2;Temp;Humidity;BMP_temperature;BMP_pressure;BME280_temperature;BME280_humidity;BME280_pressure;Samples;Min_cycle;Max_cycle;Signal;HPM_P1;HPM_P2
2021/07/11 00:00:06;;;;;;;3.97;3.60;;;19.20;88.60;;;;;;5057605;28;20459;-46
2021/07/11 00:02:33;;;;;;;3.70;3.40;;;19.20;88.60;;;;;;5065624;28;20466;-46
2021/07/11 00:05:02;;;;;;;3.50;3.20;;;19.10;88.60;;;;;;5087591;28;20450;-46
2021/07/11 00:07:32;;;;;;;3.80;3.33;;;19.10;88.50;;;;;;5083228;28;20514;-46
2021/07/11 00:09:59;;;;;;;3.47;3.17;;;19.10;88.50;;;;;;5055889;28;20443;-46
2021/07/11 00:12:27;;;;;;;3.70;3.40;;;19.10;88.50;;;;;;5096662;28;20478;-46
2021/07/11 00:14:54;;;;;;;6.43;3.53;;;19.10;88.50;;;;;;5060768;28;20855;-46
2021/07/11 00:17:22;;;;;;;4.50;3.53;;;19.10;88.50;;;;;;5059923;28;20446;-46
2021/07/11 00:19:51;;;;;;;4.77;3.30;;;19.10;88.40;;;;;;5060362;28;20465;-46
2021/07/11 00:22:18;;;;;;;4.50;3.13;;;19.10;88.40;;;;;;5062200;28;20453;-46
2021/07/11 00:24:46;;;;;;;5.43;2.67;;;19.10;88.50;;;;;;5089046;28;20470;-46
2021/07/11 00:27:13;;;;;;;3.33;3.03;;;19.10;88.50;;;;;;5059899;28;20998;-46
2021/07/11 00:29:40;;;;;;;3.17;2.87;;;19.20;88.00;;;;;;5087297;28;20456;-46
2021/07/11 00:32:07;;;;;;;3.50;3.20;;;19.20;87.40;;;;;;5066734;28;20458;-46
2021/07/11 00:34:34;;;;;;;5.70;2.70;;;19.20;87.20;;;;;;5064266;28;21012;-46
2021/07/11 00:37:01;;;;;;;5.10;3.03;;;19.20;87.40;;;;;;5060922;28;20979;-45
2021/07/11 00:39:28;;;;;;;5.50;3.73;;;19.20;87.20;;;;;;5060851;28;20442;-46
2021/07/11 00:41:55;;;;;;;4.03;3.07;;;19.10;87.80;;;;;;5065896;28;20981;-46
2021/07/11 00:44:22;;;;;;;3.37;3.07;;;19.00;88.00;;;;;;5062416;28;21173;-46
2021/07/11 00:46:48;;;;;;;5.10;2.90;;;19.00;88.00;;;;;;5059725;28;20483;-45
2021/07/11 00:49:15;;;;;;;4.27;2.73;;;19.10;87.90;;;;;;5064097;28;20446;-45
2021/07/11 00:51:43;;;;;;;6.60;3.60;;;19.10;87.50;;;;;;5064665;28;20997;-46
2021/07/11 00:54:10;;;;;;;4.80;2.80;;;19.00;87.80;;;;;;5066428;28;20438;-46
2021/07/11 00:56:37;;;;;;;3.57;3.27;;;18.90;88.00;;;;;;5064792;28;20456;-46
2021/07/11 00:59:04;;;;;;;4.60;2.80;;;18.90;88.30;;;;;;5063054;28;20447;-46
2021/07/11 01:02:03;;;;;;;3.20;2.73;;;18.90;88.60;;;;;;5091208;28;20458;-46
2021/07/11 01:04:38;;;;;;;3.07;2.43;;;18.90;88.60;;;;;;5066951;28;20439;-46
2021/07/11 01:07:08;;;;;;;6.03;3.00;;;18.90;88.30;;;;;;5060330;28;20839;-46
2021/07/11 01:09:40;;;;;;;5.53;2.50;;;18.90;88.50;;;;;;5062791;28;20460;-46
2021/07/11 01:12:18;;;;;;;5.47;2.87;;;18.90;88.40;;;;;;5061537;28;20439;-46
2021/07/11 01:14:48;;;;;;;2.93;2.57;;;18.90;88.40;;;;;;5059339;28;20454;-46
2021/07/11 01:17:18;;;;;;;10.13;3.03;;;18.90;88.40;;;;;;5090299;28;20457;-46
2021/07/11 01:20:28;;;;;;;2.53;2.30;;;18.80;88.50;;;;;;5062942;28;20516;-46
2021/07/11 01:22:56;;;;;;;3.33;2.53;;;18.80;88.20;;;;;;5061479;28;20468;-46
2021/07/11 01:25:44;;;;;;;4.07;3.00;;;18.80;88.30;;;;;;5064290;28;20557;-46
2021/07/11 01:28:17;;;;;;;4.63;2.70;;;18.80;88.30;;;;;;5063046;28;20485;-46
2021/07/11 01:30:45;;;;;;;4.13;2.60;;;18.80;88.30;;;;;;5090780;28;20458;-46
2021/07/11 01:33:13;;;;;;;6.20;2.90;;;18.80;88.40;;;;;;5061217;28;20461;-46
2021/07/11 01:35:41;;;;;;;6.67;2.97;;;18.80;88.50;;;;;;5061129;28;20935;-46
2021/07/11 01:38:08;;;;;;;2.73;2.33;;;18.80;88.40;;;;;;5061062;28;20455;-46
2021/07/11 01:40:35;;;;;;;3.47;3.10;;;18.70;88.50;;;;;;5058769;28;20962;-46
2021/07/11 01:43:04;;;;;;;2.90;2.70;;;18.70;88.60;;;;;;5091790;28;20450;-46
2021/07/11 01:45:31;;;;;;;5.77;3.17;;;18.70;88.70;;;;;;5067514;28;20450;-46
2021/07/11 01:47:58;;;;;;;4.67;3.27;;;18.70;88.60;;;;;;5092307;28;20498;-46
2021/07/11 01:50:26;;;;;;;4.30;3.30;;;18.70;88.50;;;;;;5061768;28;20523;-46
2021/07/11 01:52:53;;;;;;;4.40;3.13;;;18.70;88.50;;;;;;5060262;28;20442;-46
2021/07/11 01:55:22;;;;;;;3.73;3.13;;;18.70;88.60;;;;;;5062731;28;20521;-46
2021/07/11 01:57:49;;;;;;;5.63;3.07;;;18.70;88.70;;;;;;5062791;28;20438;-46
2021/07/11 02:00:17;;;;;;;3.50;3.20;;;18.70;88.70;;;;;;5062155;28;20903;-46
2021/07/11 02:02:46;;;;;;;9.30;4.60;;;18.70;88.70;;;;;;5059867;28;20721;-46
2021/07/11 02:05:14;;;;;;;7.23;2.90;;;18.70;88.70;;;;;;5063202;28;20480;-46
2021/07/11 02:07:41;;;;;;;4.90;2.93;;;18.60;88.80;;;;;;5060272;28;20801;-46
2021/07/11 02:10:14;;;;;;;7.63;3.73;;;18.60;88.80;;;;;;5062021;28;20446;-46
2021/07/11 02:13:04;;;;;;;4.73;3.70;;;18.60;88.60;;;;;;5059766;28;20444;-46
2021/07/11 02:15:32;;;;;;;8.80;3.93;;;18.60;88.60;;;;;;5063866;28;20449;-46
2021/07/11 02:18:01;;;;;;;3.83;3.53;;;18.60;88.60;;;;;;5063225;28;20474;-46
2021/07/11 02:20:29;;;;;;;6.93;4.50;;;18.60;88.60;;;;;;5064163;28;20464;-46
2021/07/11 02:22:57;;;;;;;4.80;3.90;;;18.50;88.60;;;;;;5055517;28;20808;-46
2021/07/11 02:25:27;;;;;;;5.77;3.57;;;18.50;88.60;;;;;;5061059;28;20449;-46
2021/07/11 02:27:56;;;;;;;5.67;3.70;;;18.50;88.80;;;;;;5087553;28;20846;-46
2021/07/11 02:30:27;;;;;;;7.47;3.80;;;18.50;88.80;;;;;;5062916;28;20450;-46
2021/07/11 02:32:55;;;;;;;7.70;4.50;;;18.50;88.80;;;;;;5060497;28;20442;-46
2021/07/11 02:35:43;;;;;;;4.30;3.90;;;18.50;89.00;;;;;;5060168;28;20450;-46
2021/07/11 02:38:12;;;;;;;11.07;4.00;;;18.50;89.00;;;;;;5063649;28;21003;-46
2021/07/11 02:40:40;;;;;;;8.30;3.90;;;18.50;89.00;;;;;;5057619;28;20450;-46
2021/07/11 02:43:10;;;;;;;7.70;3.70;;;18.50;89.10;;;;;;5063713;28;20942;-46
2021/07/11 02:45:41;;;;;;;8.33;4.17;;;18.50;89.20;;;;;;5062341;28;20468;-46
2021/07/11 02:48:10;;;;;;;5.50;4.40;;;18.60;88.80;;;;;;5061076;28;20494;-46
2021/07/11 02:50:38;;;;;;;7.87;4.03;;;18.60;88.80;;;;;;5064024;28;20632;-46
2021/07/11 02:53:05;;;;;;;7.97;4.47;;;18.60;88.60;;;;;;5061673;28;20451;-45
2021/07/11 02:55:35;;;;;;;6.47;4.83;;;18.60;88.10;;;;;;5062518;28;20447;-46
2021/07/11 02:58:08;;;;;;;10.33;4.17;;;18.60;87.90;;;;;;5061082;28;20446;-46
2021/07/11 03:00:36;;;;;;;10.17;3.83;;;18.60;88.00;;;;;;5062830;28;20568;-45
2021/07/11 03:03:04;;;;;;;6.73;4.50;;;18.60;88.20;;;;;;5059961;28;21031;-44
2021/07/11 03:05:31;;;;;;;5.20;3.57;;;18.50;88.40;;;;;;5063613;28;20461;-45
2021/07/11 03:07:58;;;;;;;9.13;4.50;;;18.60;88.40;;;;;;5062340;28;20480;-45
2021/07/11 03:10:24;;;;;;;8.67;4.67;;;18.60;88.30;;;;;;5062011;28;20906;-44
2021/07/11 03:12:53;;;;;;;5.23;3.67;;;18.60;87.90;;;;;;5059754;28;20473;-45
2021/07/11 03:15:21;;;;;;;7.03;3.60;;;18.60;87.90;;;;;;5060731;28;20453;-45
2021/07/11 03:17:48;;;;;;;4.00;3.13;;;18.60;88.00;;;;;;5064725;28;20473;-45
2021/07/11 03:20:16;;;;;;;7.07;4.20;;;18.50;88.10;;;;;;5059909;28;20824;-44
2021/07/11 03:22:43;;;;;;;4.70;3.43;;;18.60;87.70;;;;;;5059804;28;20463;-45
2021/07/11 03:25:12;;;;;;;7.83;4.40;;;18.60;87.60;;;;;;5061988;28;20549;-44
2021/07/11 03:27:40;;;;;;;7.77;4.20;;;18.50;87.70;;;;;;5061282;28;20477;-44
2021/07/11 03:30:13;;;;;;;6.63;3.93;;;18.50;87.80;;;;;;5060379;28;20451;-45
2021/07/11 03:33:00;;;;;;;6.53;4.10;;;18.50;88.00;;;;;;5061925;28;20797;-45
2021/07/11 03:35:43;;;;;;;5.73;4.37;;;18.50;88.20;;;;;;5060657;28;20456;-45
2021/07/11 03:38:15;;;;;;;5.83;4.03;;;18.40;88.30;;;;;;5060803;28;20453;-44
2021/07/11 03:40:44;;;;;;;5.20;4.03;;;18.50;88.40;;;;;;5059372;28;20452;-45
2021/07/11 03:43:13;;;;;;;7.20;4.00;;;18.50;88.40;;;;;;5059984;28;20456;-45
2021/07/11 03:45:43;;;;;;;4.17;3.77;;;18.50;88.20;;;;;;5057212;28;20885;-44
2021/07/11 03:48:24;;;;;;;5.40;3.60;;;18.40;88.30;;;;;;5092899;28;20586;-44
2021/07/11 03:50:56;;;;;;;10.53;4.83;;;18.50;87.90;;;;;;5064440;28;20445;-44
2021/07/11 03:53:26;;;;;;;9.03;3.67;;;18.50;87.90;;;;;;5067792;28;20454;-45
2021/07/11 03:55:55;;;;;;;7.73;3.93;;;18.50;87.90;;;;;;5065261;28;20838;-45
2021/07/11 03:58:23;;;;;;;6.27;3.40;;;18.50;88.10;;;;;;5062818;28;20802;-44
2021/07/11 04:00:54;;;;;;;10.37;3.73;;;18.40;88.20;;;;;;5063366;28;20452;-44
2021/07/11 04:03:24;;;;;;;5.83;3.90;;;18.40;88.50;;;;;;5065327;28;20473;-45
2021/07/11 04:05:52;;;;;;;5.37;4.57;;;18.40;88.20;;;;;;5063711;28;20492;-45
2021/07/11 04:08:21;;;;;;;5.27;4.37;;;18.40;88.10;;;;;;5066747;28;20488;-45
2021/07/11 04:10:49;;;;;;;6.17;4.60;;;18.40;88.30;;;;;;5061825;28;20441;-44
2021/07/11 04:13:16;;;;;;;6.07;4.73;;;18.30;88.60;;;;;;5066571;28;20450;-44
2021/07/11 04:15:51;;;;;;;7.07;4.07;;;18.30;88.80;;;;;;5063910;28;20535;-45
2021/07/11 04:18:21;;;;;;;5.00;4.53;;;18.30;88.90;;;;;;5062512;28;21008;-45
2021/07/11 04:20:53;;;;;;;5.23;4.67;;;18.30;88.90;;;;;;5059426;28;20545;-44
2021/07/11 04:23:23;;;;;;;4.53;4.03;;;18.30;89.00;;;;;;5064543;28;20454;-45
2021/07/11 04:25:55;;;;;;;5.70;4.60;;;18.30;89.10;;;;;;5065980;28;20457;-44
2021/07/11 04:28:23;;;;;;;6.73;4.73;;;18.30;89.10;;;;;;5063815;28;21044;-45
2021/07/11 04:30:51;;;;;;;6.97;4.87;;;18.40;89.10;;;;;;5087554;28;20450;-45
2021/07/11 04:33:18;;;;;;;4.57;4.17;;;18.40;88.90;;;;;;5064647;28;20938;-45
2021/07/11 04:35:45;;;;;;;4.70;4.30;;;18.40;88.90;;;;;;5061281;28;20446;-45
2021/07/11 04:38:12;;;;;;;6.50;5.40;;;18.40;89.00;;;;;;5062978;28;20480;-44
2021/07/11 04:40:39;;;;;;;7.00;4.33;;;18.40;89.00;;;;;;5059394;28;20454;-44
2021/07/11 04:43:06;;;;;;;5.77;4.80;;;18.40;88.90;;;;;;5064338;28;20454;-45
2021/07/11 04:45:32;;;;;;;4.90;4.40;;;18.40;88.90;;;;;;5065889;28;20458;-45
2021/07/11 04:48:04;;;;;;;5.00;3.70;;;18.40;89.00;;;;;;5061961;28;20474;-45
2021/07/11 04:50:31;;;;;;;5.20;4.40;;;18.40;89.00;;;;;;5062276;28;20453;-45
2021/07/11 04:52:57;;;;;;;8.20;4.23;;;18.30;89.00;;;;;;5062654;28;20449;-45
2021/07/11 04:55:24;;;;;;;7.87;4.03;;;18.30;89.10;;;;;;5093834;28;20481;-45
2021/07/11 04:57:51;;;;;;;5.17;3.70;;;18.40;89.10;;;;;;5065153;28;20962;-45
2021/07/11 05:00:20;;;;;;;6.60;3.93;;;18.40;88.90;;;;;;5062323;28;20450;-45
2021/07/11 05:02:47;;;;;;;11.43;4.40;;;18.40;88.80;;;;;;5061753;28;20835;-45
2021/07/11 05:05:13;;;;;;;6.40;4.70;;;18.40;88.80;;;;;;5069430;28;20528;-45
2021/07/11 05:07:40;;;;;;;7.20;4.53;;;18.40;89.00;;;;;;5067499;28;20481;-44
2021/07/11 05:10:08;;;;;;;5.70;4.00;;;18.40;89.00;;;;;;5064726;28;20451;-44
2021/07/11 05:12:36;;;;;;;4.93;4.43;;;18.40;89.10;;;;;;5063521;28;20445;-45
2021/07/11 05:15:05;;;;;;;10.50;4.50;;;18.40;88.90;;;;;;5068216;28;20450;-45
2021/07/11 05:17:32;;;;;;;7.60;4.20;;;18.50;88.40;;;;;;5086846;28;20467;-44
2021/07/11 05:19:59;;;;;;;8.20;4.83;;;18.50;87.70;;;;;;5087662;28;20455;-44
2021/07/11 05:22:26;;;;;;;4.73;4.10;;;18.50;87.60;;;;;;5088893;28;20563;-45
2021/07/11 05:24:53;;;;;;;8.03;4.43;;;18.50;87.80;;;;;;5065848;28;20461;-45
2021/07/11 05:27:20;;;;;;;4.93;4.40;;;18.50;87.80;;;;;;5065914;28;20456;-44
2021/07/11 05:29:47;;;;;;;9.00;4.43;;;18.40;87.90;;;;;;5085478;28;20486;-45
2021/07/11 05:32:13;;;;;;;8.30;5.17;;;18.40;87.90;;;;;;5061084;28;20816;-44
2021/07/11 05:34:40;;;;;;;7.20;4.60;;;18.40;88.10;;;;;;5067238;28;20852;-44
2021/07/11 05:37:07;;;;;;;6.03;3.97;;;18.40;88.10;;;;;;5060880;28;20457;-45
2021/07/11 05:39:34;;;;;;;6.30;4.77;;;18.40;88.00;;;;;;5062820;28;20974;-44
2021/07/11 05:42:00;;;;;;;7.20;4.63;;;18.40;88.00;;;;;;5062648;28;20517;-46
2021/07/11 05:44:27;;;;;;;8.80;4.97;;;18.40;88.10;;;;;;5064091;28;20450;-45
2021/07/11 05:46:54;;;;;;;6.70;5.10;;;18.40;88.20;;;;;;5065299;28;20449;-45
2021/07/11 05:49:21;;;;;;;6.17;5.57;;;18.30;88.50;;;;;;5061913;28;20935;-45
2021/07/11 05:51:48;;;;;;;12.63;6.10;;;18.30;88.80;;;;;;5055492;28;20450;-45
2021/07/11 05:54:14;;;;;;;10.47;5.07;;;18.30;89.10;;;;;;5065382;28;20932;-45
2021/07/11 05:56:41;;;;;;;9.73;5.33;;;18.30;89.20;;;;;;5065465;28;20438;-45
2021/07/11 05:59:08;;;;;;;5.80;5.20;;;18.40;88.80;;;;;;5064072;28;20455;-44
2021/07/11 06:01:35;;;;;;;5.07;4.30;;;18.40;88.80;;;;;;5064154;28;20807;-45
2021/07/11 06:04:02;;;;;;;6.43;4.60;;;18.40;89.00;;;;;;5062708;28;20477;-45
2021/07/11 06:06:28;;;;;;;10.87;5.20;;;18.50;88.40;;;;;;5063861;28;20839;-45
2021/07/11 06:08:55;;;;;;;6.70;4.93;;;18.50;88.50;;;;;;5067805;28;20496;-45
2021/07/11 06:11:22;;;;;;;12.40;5.63;;;18.50;88.50;;;;;;5060639;28;20456;-44
2021/07/11 06:13:48;;;;;;;6.00;5.17;;;18.50;88.60;;;;;;5056550;28;20457;-45
2021/07/11 06:16:15;;;;;;;6.17;4.67;;;18.40;88.80;;;;;;5066759;28;20963;-44
2021/07/11 06:18:42;;;;;;;5.93;4.40;;;18.50;88.80;;;;;;5091176;28;20568;-45
2021/07/11 06:21:09;;;;;;;11.77;4.77;;;18.40;88.80;;;;;;5058430;28;20458;-44
2021/07/11 06:23:36;;;;;;;8.57;5.00;;;18.50;89.00;;;;;;5059413;28;20472;-44
2021/07/11 06:26:03;;;;;;;5.67;5.17;;;18.50;88.50;;;;;;5063147;28;20450;-45
2021/07/11 06:28:30;;;;;;;6.67;5.57;;;18.50;88.40;;;;;;5062467;28;20489;-45
2021/07/11 06:30:57;;;;;;;5.77;4.90;;;18.50;88.60;;;;;;5057910;28;20563;-45
2021/07/11 06:33:24;;;;;;;7.37;5.50;;;18.50;88.60;;;;;;5059714;28;20537;-44
2021/07/11 06:35:51;;;;;;;6.67;5.63;;;18.50;88.60;;;;;;5060145;28;20527;-45
2021/07/11 06:38:19;;;;;;;5.40;5.00;;;18.50;88.80;;;;;;5060724;28;20438;-44
2021/07/11 06:40:50;;;;;;;9.40;5.40;;;18.50;89.00;;;;;;5062735;28;20447;-45
2021/07/11 06:43:17;;;;;;;5.27;4.77;;;18.60;88.80;;;;;;5062082;28;20458;-45
2021/07/11 06:45:44;;;;;;;6.57;5.97;;;18.60;88.50;;;;;;5061175;28;20456;-45
2021/07/11 06:48:11;;;;;;;5.97;5.33;;;18.60;88.60;;;;;;5058305;28;20893;-45
2021/07/11 06:50:40;;;;;;;5.40;4.90;;;18.50;89.00;;;;;;5062849;28;21289;-45
2021/07/11 06:53:07;;;;;;;7.00;4.87;;;18.50;89.10;;;;;;5058961;28;20459;-45
2021/07/11 06:55:33;;;;;;;4.60;4.20;;;18.50;89.00;;;;;;5062129;28;20437;-45
2021/07/11 06:58:00;;;;;;;6.10;5.40;;;18.50;88.80;;;;;;5062344;28;20449;-44
2021/07/11 07:00:27;;;;;;;6.37;5.20;;;18.50;88.80;;;;;;5059240;28;20473;-45
2021/07/11 07:02:58;;;;;;;5.53;4.87;;;18.60;88.80;;;;;;5060028;28;20862;-45
2021/07/11 07:05:25;;;;;;;6.03;5.43;;;18.60;88.60;;;;;;5061867;28;20450;-44
2021/07/11 07:07:52;;;;;;;6.93;5.43;;;18.60;88.80;;;;;;5060103;28;20480;-45
2021/07/11 07:10:19;;;;;;;6.53;5.37;;;18.60;88.80;;;;;;5060588;28;20438;-45
2021/07/11 07:12:46;;;;;;;7.20;5.17;;;18.70;88.60;;;;;;5059759;28;20480;-45
2021/07/11 07:15:13;;;;;;;5.43;4.87;;;18.70;88.30;;;;;;5057456;28;20442;-45
2021/07/11 07:17:42;;;;;;;6.00;5.10;;;18.70;87.80;;;;;;5061064;28;20504;-45
2021/07/11 07:20:10;;;;;;;4.40;4.00;;;18.70;87.60;;;;;;5060366;28;20443;-45
2021/07/11 07:22:38;;;;;;;7.03;4.20;;;18.80;87.50;;;;;;5063333;28;20840;-45
2021/07/11 07:25:10;;;;;;;4.93;4.53;;;18.80;87.40;;;;;;5061658;28;20533;-45
2021/07/11 07:27:37;;;;;;;4.80;4.40;;;18.70;87.40;;;;;;5067152;28;20464;-44
2021/07/11 07:30:05;;;;;;;5.17;4.67;;;18.70;87.50;;;;;;5060324;28;20487;-45
2021/07/11 07:32:32;;;;;;;5.60;4.70;;;18.80;87.60;;;;;;5093670;28;20445;-44
2021/07/11 07:34:59;;;;;;;5.03;4.53;;;18.80;86.80;;;;;;5063686;28;20508;-45
2021/07/11 07:37:26;;;;;;;5.33;4.83;;;18.70;86.70;;;;;;5061587;28;20480;-45
2021/07/11 07:39:53;;;;;;;6.13;5.30;;;18.70;86.90;;;;;;5067410;28;20449;-45
2021/07/11 07:42:19;;;;;;;5.63;5.07;;;18.70;87.40;;;;;;5066963;28;20464;-45
2021/07/11 07:44:47;;;;;;;4.50;4.10;;;18.70;87.30;;;;;;5066183;28;20969;-45
2021/07/11 07:47:13;;;;;;;5.20;4.63;;;18.70;87.40;;;;;;5063133;28;20457;-45
2021/07/11 07:49:40;;;;;;;4.50;4.10;;;18.70;87.50;;;;;;5062347;28;20527;-45
2021/07/11 07:52:07;;;;;;;4.90;4.27;;;18.60;87.50;;;;;;5092162;28;20457;-44
2021/07/11 07:54:34;;;;;;;4.83;4.40;;;18.70;86.90;;;;;;5061307;28;20909;-44
2021/07/11 07:57:00;;;;;;;5.40;4.70;;;18.70;86.50;;;;;;5061185;28;20450;-45
2021/07/11 07:59:27;;;;;;;6.20;4.43;;;18.60;86.40;;;;;;5058996;28;20455;-45
2021/07/11 08:01:54;;;;;;;4.50;4.10;;;18.70;86.10;;;;;;5062458;28;20886;-45
2021/07/11 08:04:21;;;;;;;5.83;4.10;;;18.70;86.00;;;;;;5061920;28;20468;-44
2021/07/11 08:06:48;;;;;;;5.40;4.60;;;18.60;86.20;;;;;;5063748;28;20461;-44
2021/07/11 08:09:18;;;;;;;4.43;4.03;;;18.70;86.10;;;;;;5062810;28;20478;-45
2021/07/11 08:11:45;;;;;;;7.00;6.40;;;18.70;85.80;;;;;;5063301;28;20453;-44
2021/07/11 08:14:12;;;;;;;5.90;5.30;;;18.70;86.10;;;;;;5093304;28;20433;-44
2021/07/11 08:16:42;;;;;;;5.43;4.93;;;18.70;86.40;;;;;;5067424;28;20495;-45
2021/07/11 08:19:09;;;;;;;5.23;4.80;;;18.80;86.40;;;;;;5063245;28;20520;-44
2021/07/11 08:21:37;;;;;;;6.57;5.50;;;18.80;86.30;;;;;;5061598;28;20959;-45
2021/07/11 08:24:04;;;;;;;6.03;5.30;;;18.80;86.30;;;;;;5063795;28;20473;-45
2021/07/11 08:26:32;;;;;;;6.03;4.80;;;18.80;86.30;;;;;;5061166;28;20542;-45
2021/07/11 08:29:00;;;;;;;5.07;4.67;;;18.90;86.30;;;;;;5065871;28;20481;-45
2021/07/11 08:31:27;;;;;;;4.43;4.03;;;18.90;85.70;;;;;;5064570;28;20446;-44
2021/07/11 08:33:55;;;;;;;5.10;4.70;;;19.00;85.20;;;;;;5066360;28;20817;-45
2021/07/11 08:36:22;;;;;;;5.13;4.63;;;18.90;85.30;;;;;;5059531;28;20454;-44
2021/07/11 08:38:49;;;;;;;5.43;4.93;;;19.00;85.30;;;;;;5063507;28;20458;-43
2021/07/11 08:41:16;;;;;;;5.10;4.60;;;19.00;85.30;;;;;;5062348;28;20821;-44
2021/07/11 08:43:44;;;;;;;6.17;5.60;;;19.00;85.50;;;;;;5063915;28;20560;-44
2021/07/11 08:46:11;;;;;;;6.23;5.30;;;19.00;85.60;;;;;;5094370;28;20453;-44
2021/07/11 08:48:40;;;;;;;4.73;4.33;;;19.00;85.60;;;;;;5064856;28;20539;-44
2021/07/11 08:51:06;;;;;;;6.20;5.40;;;19.00;85.50;;;;;;5058241;28;20825;-45
2021/07/11 08:53:33;;;;;;;6.37;5.77;;;19.00;85.70;;;;;;5062331;28;20962;-44
2021/07/11 08:56:03;;;;;;;9.60;6.30;;;19.00;85.90;;;;;;5066473;28;20473;-45
2021/07/11 08:58:30;;;;;;;6.53;5.93;;;19.10;84.90;;;;;;5063926;28;20454;-44
2021/07/11 09:00:57;;;;;;;9.07;6.43;;;19.10;85.10;;;;;;5059919;28;20465;-44
2021/07/11 09:03:24;;;;;;;7.13;6.40;;;19.10;84.80;;;;;;5090693;28;20454;-45
2021/07/11 09:05:55;;;;;;;10.67;6.93;;;19.20;84.60;;;;;;5066163;28;20457;-44
2021/07/11 09:08:25;;;;;;;8.50;7.73;;;19.20;84.70;;;;;;5061925;28;20450;-44
2021/07/11 09:10:57;;;;;;;8.03;7.23;;;19.20;84.30;;;;;;5087109;28;20450;-45
2021/07/11 09:13:30;;;;;;;8.50;7.60;;;19.20;84.00;;;;;;5064451;28;20456;-45
2021/07/11 09:16:01;;;;;;;7.60;6.90;;;19.20;83.70;;;;;;5065250;28;20458;-44
2021/07/11 09:18:30;;;;;;;8.60;6.73;;;19.20;84.30;;;;;;5088627;28;20485;-45
2021/07/11 09:20:58;;;;;;;7.00;6.40;;;19.20;84.30;;;;;;5089852;28;20549;-45
2021/07/11 09:23:26;;;;;;;7.90;7.10;;;19.20;84.30;;;;;;5062095;28;20461;-45
2021/07/11 09:26:13;;;;;;;6.77;6.13;;;19.20;83.60;;;;;;5058744;28;20462;-45
2021/07/11 09:28:51;;;;;;;7.63;6.73;;;19.20;83.60;;;;;;5065488;28;20454;-44
2021/07/11 09:31:21;;;;;;;8.93;7.20;;;19.10;83.60;;;;;;5088150;28;20995;-44
2021/07/11 09:33:59;;;;;;;7.10;6.40;;;19.10;84.00;;;;;;5060630;28;20442;-44
2021/07/11 09:36:27;;;;;;;7.77;6.47;;;19.10;84.00;;;;;;5064438;28;21019;-44
2021/07/11 09:38:59;;;;;;;9.10;8.20;;;19.10;83.90;;;;;;5063578;28;20450;-44
2021/07/11 09:41:29;;;;;;;9.50;8.53;;;19.10;84.10;;;;;;5065949;28;20462;-44
2021/07/11 09:43:59;;;;;;;8.90;7.47;;;19.10;84.20;;;;;;5087032;28;20990;-43
2021/07/11 09:46:28;;;;;;;10.20;8.00;;;19.10;84.30;;;;;;5066685;28;20485;-44
2021/07/11 09:48:56;;;;;;;9.10;8.20;;;19.10;84.10;;;;;;5061145;28;20481;-44
2021/07/11 09:51:25;;;;;;;8.00;7.23;;;19.10;84.00;;;;;;5059864;28;20970;-44
2021/07/11 09:53:54;;;;;;;7.23;6.60;;;19.20;83.70;;;;;;5088589;28;20456;-44
2021/07/11 09:56:32;;;;;;;9.83;7.77;;;19.20;83.70;;;;;;5065262;28;20507;-44
2021/07/11 09:59:01;;;;;;;8.47;7.70;;;19.20;83.90;;;;;;5064073;28;20456;-45
2021/07/11 10:01:32;;;;;;;12.43;8.47;;;19.20;84.10;;;;;;5064443;28;20464;-44
2021/07/11 10:04:00;;;;;;;8.07;7.27;;;19.20;84.30;;;;;;5060594;28;20462;-44
2021/07/11 10:06:29;;;;;;;8.13;6.60;;;19.20;84.10;;;;;;5060963;28;20462;-45
2021/07/11 10:08:56;;;;;;;8.43;7.63;;;19.20;83.70;;;;;;5065584;28;20899;-44
2021/07/11 10:11:23;;;;;;;8.83;8.03;;;19.30;83.70;;;;;;5064474;28;20503;-44
2021/07/11 10:13:52;;;;;;;10.03;6.80;;;19.30;82.80;;;;;;5060636;28;20474;-45
2021/07/11 10:16:23;;;;;;;8.80;6.47;;;19.30;82.80;;;;;;5064876;28;20533;-44
2021/07/11 10:18:58;;;;;;;8.70;7.33;;;19.40;82.30;;;;;;5061165;28;20489;-44
2021/07/11 10:21:30;;;;;;;7.33;6.63;;;19.40;81.90;;;;;;5061350;28;20493;-45
2021/07/11 10:23:58;;;;;;;6.83;6.20;;;19.50;82.20;;;;;;5058369;28;20461;-44
2021/07/11 10:26:39;;;;;;;6.53;5.80;;;19.50;82.10;;;;;;5065772;28;20447;-44
2021/07/11 10:29:24;;;;;;;6.03;5.33;;;19.50;81.70;;;;;;5091994;28;20876;-43
2021/07/11 10:31:52;;;;;;;5.73;5.20;;;19.70;80.60;;;;;;5063369;28;20438;-44
2021/07/11 10:34:28;;;;;;;7.80;6.17;;;19.70;79.80;;;;;;5059730;28;20443;-44
2021/07/11 10:36:55;;;;;;;6.43;5.43;;;19.80;80.20;;;;;;5066130;28;20963;-44
2021/07/11 10:39:34;;;;;;;6.77;5.93;;;19.90;79.60;;;;;;5064042;28;20454;-44
2021/07/11 10:42:01;;;;;;;6.90;6.20;;;19.90;80.20;;;;;;5062980;28;20453;-44
2021/07/11 10:44:28;;;;;;;6.57;5.87;;;20.00;78.20;;;;;;5062112;28;20450;-44
2021/07/11 10:46:58;;;;;;;7.07;6.10;;;20.00;78.00;;;;;;5093568;28;20469;-44
2021/07/11 10:49:36;;;;;;;7.03;6.33;;;20.10;78.50;;;;;;5062122;28;20540;-45
2021/07/11 10:52:11;;;;;;;5.67;4.87;;;20.10;78.10;;;;;;5063428;28;20468;-44
2021/07/11 10:54:59;;;;;;;5.80;5.30;;;20.10;78.10;;;;;;5060659;28;20472;-44
2021/07/11 10:57:28;;;;;;;5.23;4.73;;;20.10;78.20;;;;;;5062031;28;20517;-44
2021/07/11 10:59:55;;;;;;;6.60;5.30;;;20.10;77.80;;;;;;5054985;28;20830;-45
2021/07/11 11:02:24;;;;;;;6.43;4.70;;;20.20;77.90;;;;;;5056962;28;20969;-43
2021/07/11 11:05:03;;;;;;;5.30;4.60;;;20.20;78.20;;;;;;5057710;28;20449;-45
2021/07/11 11:07:41;;;;;;;6.40;4.80;;;20.20;78.00;;;;;;5056608;28;20465;-44
2021/07/11 11:10:31;;;;;;;5.27;4.77;;;20.20;77.70;;;;;;5055017;28;20488;-43
2021/07/11 11:13:27;;;;;;;4.43;4.07;;;20.20;76.70;;;;;;5058366;28;21032;-44
2021/07/11 11:16:12;;;;;;;5.23;4.73;;;20.30;77.30;;;;;;5055468;28;20466;-44
2021/07/11 11:18:43;;;;;;;4.27;3.87;;;20.20;76.70;;;;;;5061344;28;21044;-44
2021/07/11 11:21:18;;;;;;;6.33;4.70;;;20.30;76.60;;;;;;5059418;28;20982;-44
2021/07/11 11:23:55;;;;;;;5.23;4.43;;;20.40;76.90;;;;;;5065782;28;20487;-44
2021/07/11 11:26:31;;;;;;;4.00;3.60;;;20.50;76.90;;;;;;5060064;28;20463;-44
2021/07/11 11:28:59;;;;;;;5.00;4.50;;;20.60;76.60;;;;;;5057656;28;20449;-44
2021/07/11 11:31:28;;;;;;;7.23;3.93;;;20.60;75.80;;;;;;5059168;28;20542;-45
2021/07/11 11:34:05;;;;;;;5.07;4.53;;;20.60;76.10;;;;;;5060700;28;20457;-45
2021/07/11 11:36:47;;;;;;;4.70;4.30;;;20.70;76.20;;;;;;5059905;28;20435;-45
2021/07/11 11:39:19;;;;;;;3.00;2.80;;;20.70;76.10;;;;;;5058556;28;20457;-43
2021/07/11 11:41:47;;;;;;;3.80;3.50;;;20.80;72.60;;;;;;5059806;28;20471;-45
2021/07/11 11:44:19;;;;;;;7.40;4.30;;;20.90;72.30;;;;;;5087141;28;20441;-44
2021/07/11 11:46:49;;;;;;;5.20;4.03;;;21.00;72.80;;;;;;5057876;28;20446;-45
2021/07/11 11:49:21;;;;;;;4.07;3.77;;;21.20;73.30;;;;;;5084266;28;20450;-45
2021/07/11 11:51:57;;;;;;;4.83;3.70;;;21.40;72.10;;;;;;5058562;28;20467;-44
2021/07/11 11:54:41;;;;;;;4.83;4.20;;;21.50;71.00;;;;;;5061232;28;20461;-44
2021/07/11 11:57:10;;;;;;;4.77;4.37;;;21.60;70.40;;;;;;5058364;28;20827;-44
2021/07/11 11:59:38;;;;;;;4.30;4.00;;;21.50;71.10;;;;;;5059996;28;20447;-44
2021/07/11 12:02:07;;;;;;;4.50;4.10;;;21.60;71.70;;;;;;5055627;28;20465;-45
2021/07/11 12:04:34;;;;;;;4.60;4.20;;;21.60;71.90;;;;;;5084794;28;20447;-45
2021/07/11 12:07:02;;;;;;;4.40;4.03;;;21.60;70.60;;;;;;5085496;28;20853;-45
2021/07/11 12:09:31;;;;;;;4.33;4.03;;;21.50;70.60;;;;;;5063971;28;20496;-44
2021/07/11 12:12:03;;;;;;;6.50;4.27;;;21.50;70.80;;;;;;5061387;28;20467;-44
2021/07/11 12:14:35;;;;;;;7.43;4.90;;;21.50;71.50;;;;;;5062284;28;20801;-44
2021/07/11 12:17:06;;;;;;;4.90;4.50;;;21.40;71.60;;;;;;5062939;28;20807;-44
2021/07/11 12:19:55;;;;;;;5.73;4.63;;;21.40;72.40;;;;;;5061175;28;20478;-45
2021/07/11 12:22:27;;;;;;;5.43;4.53;;;21.40;71.40;;;;;;5059960;28;20576;-44
2021/07/11 12:25:24;;;;;;;5.50;5.00;;;21.40;71.60;;;;;;5059177;28;20463;-45
2021/07/11 12:28:03;;;;;;;5.10;4.60;;;21.40;72.50;;;;;;5057974;28;20462;-45
2021/07/11 12:30:43;;;;;;;4.63;4.23;;;21.50;72.80;;;;;;5060400;28;21002;-45
2021/07/11 12:33:10;;;;;;;5.40;4.40;;;21.50;72.70;;;;;;5058548;28;20512;-45
2021/07/11 12:35:46;;;;;;;4.30;3.90;;;21.60;71.70;;;;;;5062238;28;20461;-45
2021/07/11 12:38:13;;;;;;;4.97;4.47;;;21.70;71.20;;;;;;5062598;28;21087;-45
2021/07/11 12:40:43;;;;;;;4.40;4.00;;;21.80;71.50;;;;;;5062066;28;20458;-44
2021/07/11 12:43:20;;;;;;;4.63;3.80;;;21.90;72.00;;;;;;5064480;28;20461;-45
2021/07/11 12:46:17;;;;;;;4.90;4.40;;;22.00;72.10;;;;;;5063047;28;21299;-45
2021/07/11 12:48:47;;;;;;;4.43;3.97;;;22.10;71.30;;;;;;5053046;28;21003;-45
2021/07/11 12:51:50;;;;;;;4.43;4.03;;;22.10;69.80;;;;;;5061946;28;21050;-45
2021/07/11 12:54:20;;;;;;;4.70;4.20;;;22.20;69.30;;;;;;5037973;28;20442;-45
2021/07/11 12:56:58;;;;;;;4.30;3.90;;;22.20;69.00;;;;;;5055962;28;20994;-44
2021/07/11 12:59:35;;;;;;;4.77;4.37;;;22.30;69.00;;;;;;5055108;28;20464;-45